createdAt,value
2023-04-12T00:01:50.233Z,9.10
2023-04-12T00:04:27.662Z,9.07
2023-04-12T00:07:01.227Z,9.06
2023-04-12T00:09:32.366Z,9.01
2023-04-12T00:12:06.315Z,8.99
2023-04-12T00:14:36.947Z,8.99
2023-04-12T00:17:07.693Z,9.02
2023-04-12T00:19:41.545Z,9.03
2023-04-12T00:22:12.522Z,9.01
2023-04-12T00:24:44.130Z,8.97
2023-04-12T00:27:14.790Z,8.96
2023-04-12T00:29:46.678Z,8.92
2023-04-12T00:32:17.933Z,8.94
2023-04-12T00:34:51.066Z,8.95
2023-04-12T00:37:24.232Z,8.89
2023-04-12T00:39:54.739Z,8.90
2023-04-12T00:42:25.281Z,8.91
2023-04-12T00:44:56.668Z,8.89
2023-04-12T00:47:29.821Z,8.85
2023-04-12T00:50:04.269Z,8.76
2023-04-12T00:52:37.774Z,8.71
2023-04-12T00:55:10.634Z,8.65
2023-04-12T00:57:42.956Z,8.53
2023-04-12T01:00:17.074Z,8.43
2023-04-12T01:02:51.069Z,8.41
2023-04-12T01:05:27.358Z,8.24
2023-04-12T01:08:12.278Z,8.25
2023-04-12T01:10:55.619Z,8.23
2023-04-12T01:13:33.389Z,8.21
2023-04-12T01:16:13.356Z,8.20
2023-04-12T01:18:51.549Z,8.19
2023-04-12T01:21:36.702Z,8.15
2023-04-12T01:24:29.223Z,8.12
2023-04-12T01:27:02.873Z,8.19
2023-04-12T01:29:36.399Z,8.12
2023-04-12T01:32:08.114Z,8.06
2023-04-12T01:34:40.145Z,8.08
2023-04-12T01:37:12.644Z,8.17
2023-04-12T01:39:43.879Z,8.14
2023-04-12T01:42:14.353Z,8.16
2023-04-12T01:44:47.454Z,8.11
2023-04-12T01:47:18.519Z,8.07
2023-04-12T01:49:58.774Z,7.99
2023-04-12T01:52:34.427Z,8.04
2023-04-12T01:55:08.138Z,8.02
2023-04-12T01:57:39.606Z,7.97
2023-04-12T02:00:15.639Z,7.90
2023-04-12T02:02:46.780Z,7.92
2023-04-12T02:05:18.270Z,8.02
2023-04-12T02:07:50.085Z,8.09
2023-04-12T02:10:31.622Z,8.16
2023-04-12T02:13:03.342Z,8.25
2023-04-12T02:15:37.419Z,8.19
2023-04-12T02:18:08.838Z,8.20
2023-04-12T02:20:39.339Z,8.16
2023-04-12T02:23:10.822Z,8.17
2023-04-12T02:25:41.531Z,8.19
2023-04-12T02:28:12.351Z,8.22
2023-04-12T02:30:47.074Z,8.26
2023-04-12T02:33:18.549Z,8.24
2023-04-12T02:35:49.499Z,8.16
2023-04-12T02:38:23.558Z,8.07
2023-04-12T02:40:54.168Z,7.99
2023-04-12T02:43:24.803Z,8.00
2023-04-12T02:46:05.488Z,7.98
2023-04-12T02:48:43.606Z,7.96
2023-04-12T02:51:14.913Z,7.92
2023-04-12T02:53:47.413Z,7.91
2023-04-12T02:56:21.985Z,7.91
2023-04-12T02:58:58.737Z,7.88
2023-04-12T03:01:58.725Z,7.93
2023-04-12T03:04:33.344Z,7.93
2023-04-12T03:07:05.725Z,7.91
2023-04-12T03:09:54.009Z,7.84
2023-04-12T03:12:26.947Z,7.80
2023-04-12T03:15:18.066Z,7.79
2023-04-12T03:17:55.053Z,7.86
2023-04-12T03:20:30.617Z,7.85
2023-04-12T03:23:05.830Z,7.88
2023-04-12T03:25:41.069Z,7.87
2023-04-12T03:28:30.316Z,7.89
2023-04-12T03:31:03.197Z,7.88
2023-04-12T03:33:48.646Z,7.91
2023-04-12T03:36:27.274Z,7.91
2023-04-12T03:39:08.600Z,7.88
2023-04-12T03:41:41.720Z,7.90
2023-04-12T03:44:12.734Z,7.93
2023-04-12T03:46:43.552Z,7.90
2023-04-12T03:49:18.202Z,7.92
2023-04-12T03:51:52.571Z,7.94
2023-04-12T03:54:24.618Z,7.92
2023-04-12T03:57:03.054Z,7.91
2023-04-12T03:59:44.051Z,7.96
2023-04-12T04:02:15.369Z,7.83
2023-04-12T04:04:54.433Z,7.88
2023-04-12T04:07:31.924Z,7.79
2023-04-12T04:10:03.111Z,7.75
2023-04-12T04:12:38.836Z,7.74
2023-04-12T04:15:14.533Z,7.72
2023-04-12T04:17:47.762Z,7.76
2023-04-12T04:20:22.185Z,7.79
2023-04-12T04:22:54.918Z,7.79
2023-04-12T04:25:30.101Z,7.76
2023-04-12T04:28:04.602Z,7.79
2023-04-12T04:30:39.076Z,7.72
2023-04-12T04:33:12.523Z,7.66
2023-04-12T04:35:46.401Z,7.56
2023-04-12T04:38:29.347Z,7.52
2023-04-12T04:41:10.517Z,7.53
2023-04-12T04:43:51.802Z,7.56
2023-04-12T04:46:23.915Z,7.63
2023-04-12T04:48:55.756Z,7.58
2023-04-12T04:51:28.855Z,7.65
2023-04-12T04:54:02.365Z,7.64
2023-04-12T04:56:33.336Z,7.66
2023-04-12T04:59:04.625Z,7.65
2023-04-12T05:01:36.221Z,7.64
2023-04-12T05:04:08.135Z,7.65
2023-04-12T05:06:41.101Z,7.60
2023-04-12T05:09:13.337Z,7.64
2023-04-12T05:11:50.934Z,7.60
2023-04-12T05:14:23.224Z,7.64
2023-04-12T05:16:54.522Z,7.58
2023-04-12T05:19:24.944Z,7.56
2023-04-12T05:21:57.986Z,7.56
2023-04-12T05:24:28.413Z,7.63
2023-04-12T05:27:00.918Z,7.67
2023-04-12T05:29:31.357Z,7.65
2023-04-12T05:32:02.427Z,7.68
2023-04-12T05:34:33.311Z,7.69
2023-04-12T05:37:06.333Z,7.68
2023-04-12T05:39:40.975Z,7.70
2023-04-12T05:42:13.679Z,7.71
2023-04-12T05:44:45.774Z,7.79
2023-04-12T05:47:18.550Z,7.78
2023-04-12T05:49:48.981Z,7.76
2023-04-12T05:52:24.464Z,7.81
2023-04-12T05:54:56.644Z,7.80
2023-04-12T05:57:27.243Z,7.83
2023-04-12T05:59:57.898Z,7.85
2023-04-12T06:02:28.751Z,7.82
2023-04-12T06:05:01.102Z,7.90
2023-04-12T06:07:34.411Z,7.82
2023-04-12T06:10:04.796Z,7.83
2023-04-12T06:12:36.127Z,7.84
2023-04-12T06:15:07.708Z,7.87
2023-04-12T06:17:39.030Z,7.85
2023-04-12T06:20:11.468Z,7.88
2023-04-12T06:22:45.281Z,7.89
2023-04-12T06:25:19.472Z,7.86
2023-04-12T06:27:51.503Z,7.99
2023-04-12T06:30:22.883Z,7.91
2023-04-12T06:32:56.261Z,7.98
2023-04-12T06:35:26.675Z,8.01
2023-04-12T06:37:59.784Z,7.99
2023-04-12T06:40:30.675Z,8.01
2023-04-12T06:43:01.138Z,8.02
2023-04-12T06:45:31.604Z,8.05
2023-04-12T06:48:02.306Z,8.08
2023-04-12T06:50:32.746Z,8.10
2023-04-12T06:53:05.878Z,8.08
2023-04-12T06:55:36.595Z,8.01
2023-04-12T06:58:07.321Z,7.95
2023-04-12T07:00:37.934Z,8.02
2023-04-12T07:03:08.732Z,7.98
2023-04-12T07:05:41.591Z,7.97
2023-04-12T07:08:14.681Z,8.08
2023-04-12T07:10:45.178Z,8.09
2023-04-12T07:13:15.691Z,8.11
2023-04-12T07:15:47.456Z,8.19
2023-04-12T07:18:18.080Z,8.16
2023-04-12T07:20:50.424Z,8.11
2023-04-12T07:23:23.650Z,8.17
2023-04-12T07:25:54.471Z,8.25
2023-04-12T07:28:24.836Z,8.24
2023-04-12T07:30:55.419Z,8.19
2023-04-12T07:33:26.159Z,8.22
2023-04-12T07:35:56.729Z,8.18
2023-04-12T07:38:29.729Z,8.16
2023-04-12T07:41:00.623Z,8.32
2023-04-12T07:43:31.259Z,8.24
2023-04-12T07:46:04.727Z,8.25
2023-04-12T07:48:35.394Z,8.24
2023-04-12T07:51:06.154Z,8.34
2023-04-12T07:53:39.809Z,8.39
2023-04-12T07:56:11.327Z,8.42
2023-04-12T07:58:42.001Z,8.50
2023-04-12T08:01:14.741Z,8.40
2023-04-12T08:03:45.472Z,8.40
2023-04-12T08:06:17.671Z,8.42
2023-04-12T08:08:51.028Z,8.44
2023-04-12T08:11:21.376Z,8.48
2023-04-12T08:13:51.839Z,8.48
2023-04-12T08:16:22.358Z,8.52
2023-04-12T08:18:52.852Z,8.57
2023-04-12T08:21:23.519Z,8.61
2023-04-12T08:23:57.332Z,8.58
2023-04-12T08:26:30.042Z,8.62
2023-04-12T08:29:01.073Z,8.64
2023-04-12T08:31:31.985Z,8.67
2023-04-12T08:34:02.556Z,8.69
2023-04-12T08:36:33.560Z,8.74
2023-04-12T08:39:06.982Z,8.74
2023-04-12T08:41:39.146Z,8.69
2023-04-12T08:44:09.849Z,8.69
2023-04-12T08:46:41.136Z,8.72
2023-04-12T08:49:11.688Z,8.71
2023-04-12T08:51:45.086Z,8.77
2023-04-12T08:54:18.386Z,8.81
2023-04-12T08:56:49.859Z,8.81
2023-04-12T08:59:20.672Z,8.81
2023-04-12T09:01:51.674Z,8.91
2023-04-12T09:04:22.286Z,8.91
2023-04-12T09:06:53.438Z,8.94
2023-04-12T09:09:44.216Z,8.93
2023-04-12T09:12:15.983Z,8.97
2023-04-12T09:14:46.968Z,8.98
2023-04-12T09:17:29.095Z,9.06
2023-04-12T09:19:59.676Z,9.04
2023-04-12T09:22:44.703Z,9.06
2023-04-12T09:25:18.563Z,9.12
2023-04-12T09:27:50.297Z,9.20
2023-04-12T09:30:22.988Z,9.24
2023-04-12T09:32:54.733Z,9.38
2023-04-12T09:35:37.530Z,9.36
2023-04-12T09:38:11.452Z,9.41
2023-04-12T09:40:44.892Z,9.46
2023-04-12T09:43:15.975Z,9.44
2023-04-12T09:45:47.690Z,9.52
2023-04-12T09:48:26.496Z,9.60
2023-04-12T09:51:02.556Z,9.63
2023-04-12T09:53:34.147Z,9.68
2023-04-12T09:56:09.383Z,9.72
2023-04-12T09:58:42.551Z,9.83
2023-04-12T10:01:14.636Z,9.84
2023-04-12T10:03:47.007Z,9.89
2023-04-12T10:06:18.784Z,9.95
2023-04-12T10:08:49.815Z,10.05
2023-04-12T10:11:23.663Z,10.12
2023-04-12T10:13:55.050Z,10.22
2023-04-12T10:16:25.984Z,10.24
2023-04-12T10:18:58.145Z,10.32
2023-04-12T10:21:29.281Z,10.41
2023-04-12T10:24:00.877Z,10.47
2023-04-12T10:26:34.226Z,10.50
2023-04-12T10:29:26.873Z,10.59
2023-04-12T10:31:58.508Z,10.68
2023-04-12T10:34:33.532Z,10.73
2023-04-12T10:37:05.900Z,10.80
2023-04-12T10:39:45.080Z,10.83
2023-04-12T10:42:28.010Z,10.89
2023-04-12T10:45:47.348Z,10.91
2023-04-12T10:48:34.198Z,11.00
2023-04-12T10:51:23.751Z,11.12
2023-04-12T10:53:55.096Z,11.16
2023-04-12T10:56:41.480Z,11.23
2023-04-12T10:59:19.244Z,11.27
2023-04-12T11:02:16.049Z,11.26
2023-04-12T11:05:09.866Z,11.35
2023-04-12T11:07:57.255Z,11.44
2023-04-12T11:10:43.360Z,11.47
2023-04-12T11:13:20.588Z,11.58
2023-04-12T11:15:58.815Z,11.63
2023-04-12T11:18:29.598Z,11.70
2023-04-12T11:21:01.489Z,11.71
2023-04-12T11:23:32.372Z,11.73
2023-04-12T11:26:03.057Z,11.79
2023-04-12T11:28:36.292Z,11.83
2023-04-12T11:31:09.929Z,11.88
2023-04-12T11:33:42.848Z,11.90
2023-04-12T11:36:15.233Z,11.92
2023-04-12T11:38:47.156Z,11.93
2023-04-12T11:41:18.810Z,11.96
2023-04-12T11:43:50.578Z,11.98
2023-04-12T11:46:24.323Z,12.01
2023-04-12T11:48:55.065Z,12.10
2023-04-12T11:51:31.671Z,12.15
2023-04-12T11:54:02.989Z,12.23
2023-04-12T11:56:34.493Z,12.21
2023-04-12T11:59:05.080Z,12.18
2023-04-12T12:01:39.093Z,12.23
2023-04-12T12:04:10.031Z,12.30
2023-04-12T12:06:41.394Z,12.33
2023-04-12T12:09:12.059Z,12.36
2023-04-12T12:11:44.937Z,12.39
2023-04-12T12:14:15.622Z,12.45
2023-04-12T12:16:57.058Z,12.52
2023-04-12T12:19:39.497Z,12.56
2023-04-12T12:22:18.513Z,12.56
2023-04-12T12:24:53.513Z,12.56
2023-04-12T12:27:25.701Z,12.66
2023-04-12T12:29:58.946Z,12.73
2023-04-12T12:32:37.496Z,12.77
2023-04-12T12:35:13.018Z,12.81
2023-04-12T12:37:53.479Z,12.82
2023-04-12T12:40:32.986Z,12.87
2023-04-12T12:43:03.687Z,12.91
2023-04-12T12:45:36.635Z,12.97
2023-04-12T12:48:09.978Z,13.05
2023-04-12T12:50:40.656Z,13.14
2023-04-12T12:53:11.419Z,13.23
2023-04-12T12:55:42.063Z,13.30
2023-04-12T12:58:12.717Z,13.26
2023-04-12T13:00:43.256Z,13.26
2023-04-12T13:03:16.624Z,13.29
2023-04-12T13:05:47.403Z,13.31
2023-04-12T13:08:17.905Z,13.34
2023-04-12T13:10:48.510Z,13.37
2023-04-12T13:13:19.239Z,13.46
2023-04-12T13:15:52.019Z,13.56
2023-04-12T13:18:24.936Z,13.58
2023-04-12T13:20:55.405Z,13.60
2023-04-12T13:23:25.831Z,13.58
2023-04-12T13:25:56.479Z,13.55
2023-04-12T13:28:27.075Z,13.54
2023-04-12T13:30:57.588Z,13.49
2023-04-12T13:33:30.780Z,13.50
2023-04-12T13:36:01.354Z,13.46
2023-04-12T13:38:31.976Z,13.50
2023-04-12T13:41:02.608Z,13.57
2023-04-12T13:43:32.958Z,13.59
2023-04-12T13:46:03.651Z,13.70
2023-04-12T13:48:37.558Z,13.86
2023-04-12T13:51:08.638Z,13.90
2023-04-12T13:53:39.306Z,14.02
2023-04-12T13:56:11.899Z,14.02
2023-04-12T13:58:42.474Z,14.03
2023-04-12T14:01:13.639Z,14.02
2023-04-12T14:03:46.891Z,13.93
2023-04-12T14:06:17.412Z,13.81
2023-04-12T14:08:48.398Z,13.80
2023-04-12T14:11:18.818Z,13.79
2023-04-12T14:13:49.386Z,13.75
2023-04-12T14:16:19.841Z,13.76
2023-04-12T14:18:52.777Z,13.87
2023-04-12T14:21:26.127Z,14.53
2023-04-12T14:23:56.706Z,14.90
2023-04-12T14:26:27.560Z,15.12
2023-04-12T14:28:58.299Z,15.07
2023-04-12T14:31:28.941Z,15.36
2023-04-12T14:34:01.906Z,15.55
2023-04-12T14:36:33.568Z,15.44
2023-04-12T14:39:06.965Z,15.16
2023-04-12T14:41:39.315Z,14.89
2023-04-12T14:44:09.750Z,14.85
2023-04-12T14:46:40.340Z,14.91
2023-04-12T14:49:14.508Z,15.21
2023-04-12T14:51:45.182Z,15.07
2023-04-12T14:54:15.667Z,14.99
2023-04-12T14:56:52.919Z,15.02
2023-04-12T14:59:27.384Z,15.02
2023-04-12T15:01:59.606Z,14.94
2023-04-12T15:04:33.314Z,14.88
2023-04-12T15:07:03.837Z,14.76
2023-04-12T15:09:34.330Z,14.78
2023-04-12T15:12:04.696Z,14.81
2023-04-12T15:14:35.178Z,14.70
2023-04-12T15:17:05.552Z,14.59
2023-04-12T15:19:38.602Z,14.44
2023-04-12T15:22:08.923Z,13.88
2023-04-12T15:24:39.371Z,12.38
2023-04-12T15:27:09.777Z,11.73
2023-04-12T15:29:40.317Z,11.37
2023-04-12T15:32:11.596Z,11.11
2023-04-12T15:34:47.161Z,10.81
2023-04-12T15:37:17.946Z,10.76
2023-04-12T15:39:49.408Z,10.49
2023-04-12T15:42:20.895Z,10.51
2023-04-12T15:44:51.440Z,10.48
2023-04-12T15:47:21.779Z,10.42
2023-04-12T15:49:54.981Z,10.29
2023-04-12T15:52:25.765Z,10.32
2023-04-12T15:54:56.296Z,10.36
2023-04-12T15:57:27.760Z,10.36
2023-04-12T15:59:59.798Z,10.50
2023-04-12T16:02:30.553Z,10.50
2023-04-12T16:05:04.115Z,10.57
2023-04-12T16:07:34.819Z,10.57
2023-04-12T16:10:06.458Z,10.66
2023-04-12T16:12:37.028Z,10.87
2023-04-12T16:15:09.368Z,11.02
2023-04-12T16:17:40.219Z,11.07
2023-04-12T16:20:16.933Z,10.97
2023-04-12T16:22:48.465Z,10.93
2023-04-12T16:25:28.190Z,10.95
2023-04-12T16:28:03.300Z,10.95
2023-04-12T16:30:34.147Z,10.91
2023-04-12T16:33:07.521Z,10.85
2023-04-12T16:35:41.367Z,10.81
2023-04-12T16:38:12.291Z,10.84
2023-04-12T16:40:43.135Z,10.74
2023-04-12T16:43:13.892Z,10.78
2023-04-12T16:45:46.394Z,10.82
2023-04-12T16:48:19.177Z,10.86
2023-04-12T16:50:52.489Z,10.87
2023-04-12T16:53:22.915Z,10.88
2023-04-12T16:55:53.643Z,10.86
2023-04-12T16:58:25.071Z,10.86
2023-04-12T17:00:56.075Z,10.81
2023-04-12T17:03:26.829Z,10.78
2023-04-12T17:05:59.994Z,10.78
2023-04-12T17:08:30.409Z,10.78
2023-04-12T17:11:01.053Z,10.79
2023-04-12T17:13:31.549Z,10.77
2023-04-12T17:16:03.314Z,10.73
2023-04-12T17:18:34.857Z,10.76
2023-04-12T17:21:09.333Z,10.73
2023-04-12T17:23:41.984Z,10.76
2023-04-12T17:26:12.495Z,10.73
2023-04-12T17:28:46.105Z,10.71
2023-04-12T17:31:17.330Z,10.69
2023-04-12T17:33:47.838Z,10.65
2023-04-12T17:36:20.923Z,10.66
2023-04-12T17:38:51.424Z,10.67
2023-04-12T17:41:24.390Z,10.61
2023-04-12T17:43:54.889Z,10.54
2023-04-12T17:46:25.941Z,10.57
2023-04-12T17:48:58.322Z,10.58
2023-04-12T17:51:32.331Z,10.57
2023-04-12T17:54:03.872Z,10.53
2023-04-12T17:56:43.498Z,10.51
2023-04-12T17:59:14.666Z,10.49
2023-04-12T18:01:45.292Z,10.52
2023-04-12T18:04:15.866Z,10.52
2023-04-12T18:06:48.917Z,10.60
2023-04-12T18:09:20.782Z,10.57
2023-04-12T18:11:51.751Z,10.63
2023-04-12T18:14:22.676Z,10.61
2023-04-12T18:16:53.124Z,10.55
2023-04-12T18:19:23.474Z,10.50
2023-04-12T18:22:00.584Z,10.42
2023-04-12T18:24:31.167Z,10.36
2023-04-12T18:27:04.290Z,10.24
2023-04-12T18:29:35.239Z,10.18
2023-04-12T18:32:05.608Z,10.17
2023-04-12T18:34:38.022Z,10.11
2023-04-12T18:37:13.277Z,10.05
2023-04-12T18:39:43.791Z,9.99
2023-04-12T18:42:15.782Z,9.96
2023-04-12T18:44:46.274Z,9.87
2023-04-12T18:47:16.823Z,9.89
2023-04-12T18:49:47.736Z,9.81
2023-04-12T18:52:20.868Z,9.78
2023-04-12T18:54:51.599Z,9.78
2023-04-12T18:57:22.118Z,9.72
2023-04-12T18:59:52.559Z,9.71
2023-04-12T19:02:23.081Z,9.71
2023-04-12T19:04:54.758Z,9.68
2023-04-12T19:07:28.077Z,9.65
2023-04-12T19:09:58.489Z,9.66
2023-04-12T19:12:29.422Z,9.66
2023-04-12T19:15:01.042Z,9.60
2023-04-12T19:17:32.235Z,9.65
2023-04-12T19:20:03.124Z,9.58
2023-04-12T19:22:36.452Z,9.55
2023-04-12T19:25:08.615Z,9.53
2023-04-12T19:27:39.551Z,9.54
2023-04-12T19:30:13.285Z,9.50
2023-04-12T19:32:43.911Z,9.47
2023-04-12T19:35:14.594Z,9.50
2023-04-12T19:37:47.904Z,9.46
2023-04-12T19:40:18.537Z,9.50
2023-04-12T19:42:49.355Z,9.48
2023-04-12T19:45:19.977Z,9.44
2023-04-12T19:47:50.583Z,9.46
2023-04-12T19:50:21.406Z,9.40
2023-04-12T19:52:55.442Z,9.37
2023-04-12T19:55:26.192Z,9.38
2023-04-12T19:57:57.075Z,9.38
2023-04-12T20:00:27.725Z,9.37
2023-04-12T20:02:58.191Z,9.31
2023-04-12T20:05:29.102Z,9.31
2023-04-12T20:08:02.430Z,9.35
2023-04-12T20:10:33.043Z,9.35
2023-04-12T20:13:04.307Z,9.32
2023-04-12T20:15:34.875Z,9.37
2023-04-12T20:18:06.889Z,9.31
2023-04-12T20:20:37.580Z,9.36
2023-04-12T20:23:10.520Z,9.31
2023-04-12T20:25:42.108Z,9.30
2023-04-12T20:28:13.668Z,9.28
2023-04-12T20:30:45.613Z,9.30
2023-04-12T20:33:16.018Z,9.29
2023-04-12T20:35:46.577Z,9.26
2023-04-12T20:38:19.566Z,9.23
2023-04-12T20:40:50.062Z,9.26
2023-04-12T20:43:20.474Z,9.20
2023-04-12T20:45:51.190Z,9.26
2023-04-12T20:48:22.085Z,9.17
2023-04-12T20:50:52.721Z,9.22
2023-04-12T20:53:25.680Z,9.24
2023-04-12T20:55:56.112Z,8.99
2023-04-12T20:58:26.779Z,8.62
2023-04-12T21:00:57.810Z,8.10
2023-04-12T21:03:29.157Z,7.97
2023-04-12T21:06:00.342Z,7.66
2023-04-12T21:08:33.884Z,7.49
2023-04-12T21:11:05.087Z,7.30
2023-04-12T21:13:35.689Z,7.26
2023-04-12T21:16:07.216Z,7.22
2023-04-12T21:18:38.025Z,7.10
2023-04-12T21:21:09.447Z,7.09
2023-04-12T21:23:42.979Z,7.10
2023-04-12T21:26:14.771Z,7.15
2023-04-12T21:28:45.249Z,7.10
2023-04-12T21:31:16.196Z,7.17
2023-04-12T21:33:46.806Z,7.19
2023-04-12T21:36:18.243Z,7.19
2023-04-12T21:38:51.901Z,7.18
2023-04-12T21:41:23.861Z,7.21
2023-04-12T21:43:54.363Z,7.22
2023-04-12T21:46:27.766Z,7.17
2023-04-12T21:48:58.668Z,7.21
2023-04-12T21:51:29.414Z,7.16
2023-04-12T21:54:02.410Z,7.20
2023-04-12T21:56:32.784Z,7.24
2023-04-12T21:59:05.737Z,7.17
2023-04-12T22:01:38.130Z,7.17
2023-04-12T22:04:08.858Z,7.18
2023-04-12T22:06:39.371Z,7.19
2023-04-12T22:09:12.593Z,7.17
2023-04-12T22:11:43.023Z,7.14
2023-04-12T22:14:13.374Z,7.16
2023-04-12T22:16:43.830Z,7.22
2023-04-12T22:19:14.362Z,7.17
2023-04-12T22:21:45.764Z,7.18
2023-04-12T22:24:20.148Z,7.13
2023-04-12T22:26:50.857Z,7.17
2023-04-12T22:29:22.723Z,7.09
2023-04-12T22:31:53.450Z,7.13
2023-04-12T22:34:24.041Z,7.14
2023-04-12T22:36:58.805Z,7.12
2023-04-12T22:39:32.022Z,7.13
2023-04-12T22:42:04.352Z,7.08
2023-04-12T22:44:38.371Z,7.07
2023-04-12T22:47:10.583Z,7.09
2023-04-12T22:49:50.603Z,7.10
2023-04-12T22:52:21.913Z,7.15
2023-04-12T22:54:55.041Z,7.11
2023-04-12T22:57:25.948Z,7.09
2023-04-12T22:59:57.780Z,7.10
2023-04-12T23:02:28.500Z,7.15
2023-04-12T23:04:59.088Z,7.13
2023-04-12T23:07:30.426Z,7.17
2023-04-12T23:10:04.246Z,7.11
2023-04-12T23:12:34.550Z,7.11
2023-04-12T23:15:06.596Z,7.09
2023-04-12T23:17:37.438Z,7.13
2023-04-12T23:20:13.571Z,7.14
2023-04-12T23:22:57.290Z,7.09
2023-04-12T23:25:41.409Z,7.09
2023-04-12T23:28:15.215Z,7.09
2023-04-12T23:30:47.903Z,7.06
2023-04-12T23:33:19.117Z,7.08
2023-04-12T23:35:52.940Z,7.04
2023-04-12T23:38:32.258Z,7.00
2023-04-12T23:41:09.083Z,7.01
2023-04-12T23:43:40.990Z,7.00
2023-04-12T23:46:12.273Z,6.95
2023-04-12T23:48:43.070Z,6.97
2023-04-12T23:51:13.430Z,6.94
2023-04-12T23:53:44.124Z,6.90
2023-04-12T23:56:17.228Z,6.86
2023-04-12T23:58:47.934Z,6.86
